Terminal Aerodrome Forecast
Issued by NWS Corpus Christi, TX

Current Version | Previous Version | Text Only | Print | Product List | Glossary Off
Versions: 1 2 3 4 5 6 7 8 9 10 11 12 13 14 15 16 17 18 19 20 21

000
FTUS44 KCRP 180900 AAA
TAFCRP
TAF AMD
KCRP 180915Z 1809/1906 04008KT P6SM SCT008 BKN012 OVC025
     FM181500 04015KT P6SM BKN015 OVC030
     FM181900 07012KT P6SM BKN025 OVC250
     FM182100 12014KT P6SM SCT040 BKN250
     FM190500 15007KT P6SM BKN250=

USA.gov is the U.S. government's official web portal to all federal, state and local government web resources and services.